Terminal Aerodrome Forecast
Issued by NWS

Home | Current Version | Previous Version | Text Only | Print | Product List | Glossary On
Versions: 1 2 3 4 5 6 7 8 9 10 11 12
993
FTUS45 KRIW 291720
TAFRKS
TAF
KRKS 291720Z 2918/3018 19008KT P6SM VCSH SCT070 BKN090
     FM291900 20013G21KT P6SM VCTS SCT060CB BKN080
     FM300100 21008KT P6SM SCT080=

USA.gov is the U.S. government's official web portal to all federal, state and local government web resources and services.